Time;durP1;ratioP1;P1;durP2;ratioP2;P2;SDS_P1;SDS_P2;PMS_P1;PMS_P2;Temp;Humidity;BMP_temperature;BMP_pressure;BME280_temperature;BME280_humidity;BME280_pressure;Samples;Min_cycle;Max_cycle;Signal;HPM_P1;HPM_P2
2024/02/28 00:02:23;;;;;;;18.97;12.73;;;8.40;99.90;;;;;;4931787;29;20491;-32
2024/02/28 00:04:53;;;;;;;21.63;13.30;;;8.30;99.90;;;;;;4926220;29;21211;-35
2024/02/28 00:07:20;;;;;;;20.63;14.13;;;8.30;99.90;;;;;;4935641;29;20463;-27
2024/02/28 00:09:51;;;;;;;17.83;13.47;;;8.40;99.90;;;;;;4931221;29;20546;-28
2024/02/28 00:12:17;;;;;;;19.40;13.30;;;8.40;99.90;;;;;;4929924;29;20436;-32
2024/02/28 00:14:46;;;;;;;21.73;14.33;;;8.30;99.90;;;;;;4915113;29;20455;-35
2024/02/28 00:17:13;;;;;;;22.50;14.07;;;8.40;99.90;;;;;;4929186;29;20468;-28
2024/02/28 00:19:39;;;;;;;20.80;13.37;;;8.10;99.90;;;;;;4914898;29;20440;-28
2024/02/28 00:22:05;;;;;;;22.77;14.30;;;8.40;99.90;;;;;;4906945;29;20523;-31
2024/02/28 00:24:31;;;;;;;22.60;15.17;;;8.30;99.90;;;;;;4910793;29;20791;-33
2024/02/28 00:26:58;;;;;;;22.57;14.40;;;8.30;99.90;;;;;;4925952;29;20523;-30
2024/02/28 00:29:26;;;;;;;20.10;12.83;;;8.30;99.90;;;;;;4926923;29;20440;-28
2024/02/28 00:31:55;;;;;;;21.43;13.47;;;8.30;99.90;;;;;;4923768;29;20448;-35
2024/02/28 00:34:23;;;;;;;21.53;14.13;;;8.20;99.90;;;;;;4908730;29;20464;-29
2024/02/28 00:36:52;;;;;;;22.67;13.97;;;8.20;99.90;;;;;;4916917;29;20845;-34
2024/02/28 00:39:20;;;;;;;19.70;14.17;;;8.20;99.90;;;;;;4907898;29;20436;-28
2024/02/28 00:41:46;;;;;;;22.33;13.80;;;8.20;99.90;;;;;;4930747;29;20424;-29
2024/02/28 00:44:15;;;;;;;24.13;14.93;;;8.20;99.90;;;;;;4923915;29;20456;-34
2024/02/28 00:46:43;;;;;;;20.37;13.93;;;8.20;99.90;;;;;;4928966;29;20452;-31
2024/02/28 00:49:12;;;;;;;23.87;14.30;;;8.20;99.90;;;;;;4911103;29;20468;-31
2024/02/28 00:51:38;;;;;;;19.90;13.90;;;8.20;99.90;;;;;;4930679;29;20460;-30
2024/02/28 00:54:05;;;;;;;20.27;14.33;;;8.10;99.90;;;;;;4913990;29;20458;-32
2024/02/28 00:56:33;;;;;;;22.57;14.23;;;8.20;99.90;;;;;;4905988;29;20500;-33
2024/02/28 00:58:59;;;;;;;26.93;13.60;;;8.20;99.90;;;;;;4906045;29;20479;-34
2024/02/28 01:01:25;;;;;;;21.40;14.40;;;8.20;99.90;;;;;;4930404;29;20442;-33
2024/02/28 01:03:51;;;;;;;25.37;14.00;;;8.10;99.90;;;;;;4911206;29;20468;-31
2024/02/28 01:06:17;;;;;;;22.43;13.77;;;8.20;99.90;;;;;;4913257;29;20490;-31
2024/02/28 01:08:43;;;;;;;25.13;13.70;;;8.30;99.90;;;;;;4890227;29;20220;-34
2024/02/28 01:11:10;;;;;;;21.63;14.43;;;8.10;99.90;;;;;;4928937;29;20441;-31
2024/02/28 01:13:39;;;;;;;23.07;14.23;;;8.10;99.90;;;;;;4923471;29;21271;-32
2024/02/28 01:16:05;;;;;;;23.63;14.23;;;8.10;99.90;;;;;;4906051;29;21021;-32
2024/02/28 01:18:32;;;;;;;20.67;13.50;;;8.10;99.90;;;;;;4925550;29;21256;-27
2024/02/28 01:20:58;;;;;;;21.87;13.63;;;8.10;99.90;;;;;;4924707;29;20428;-35
2024/02/28 01:23:30;;;;;;;22.00;13.80;;;8.10;99.90;;;;;;4932836;29;21275;-29
2024/02/28 01:25:58;;;;;;;21.60;14.07;;;8.10;99.90;;;;;;4925316;29;20432;-28
2024/02/28 01:28:29;;;;;;;22.27;14.10;;;8.10;99.90;;;;;;4923818;29;20500;-29
2024/02/28 01:31:01;;;;;;;21.50;14.07;;;8.00;99.90;;;;;;4891051;29;21121;-31
2024/02/28 01:33:27;;;;;;;20.93;14.67;;;8.10;99.90;;;;;;4925256;29;20543;-33
2024/02/28 01:35:53;;;;;;;22.07;13.60;;;8.00;99.90;;;;;;4907873;29;20456;-34
2024/02/28 01:38:21;;;;;;;22.93;14.90;;;8.00;99.90;;;;;;4892076;29;20452;-31
2024/02/28 01:40:47;;;;;;;18.63;12.70;;;8.00;99.90;;;;;;4908201;29;20444;-33
2024/02/28 01:43:14;;;;;;;20.70;13.47;;;8.00;99.90;;;;;;4932219;29;20436;-34
2024/02/28 01:45:42;;;;;;;22.07;14.40;;;8.00;99.90;;;;;;4931243;29;20971;-28
2024/02/28 01:48:11;;;;;;;17.20;13.37;;;8.00;99.90;;;;;;4925807;29;20530;-32
2024/02/28 01:50:44;;;;;;;19.13;13.80;;;8.10;99.90;;;;;;4929154;29;20946;-35
2024/02/28 01:53:13;;;;;;;23.23;13.77;;;8.00;99.90;;;;;;4927534;29;20456;-37
2024/02/28 01:55:40;;;;;;;21.70;14.20;;;8.00;99.90;;;;;;4925728;29;20468;-32
2024/02/28 01:58:06;;;;;;;21.60;14.20;;;8.00;99.90;;;;;;4911782;29;20444;-31
2024/02/28 02:00:34;;;;;;;22.57;13.93;;;8.00;99.90;;;;;;4907713;29;21349;-34
2024/02/28 02:03:02;;;;;;;22.60;13.20;;;7.90;99.90;;;;;;4921770;29;20902;-35
2024/02/28 02:05:29;;;;;;;18.70;13.40;;;7.90;99.90;;;;;;4919639;29;20523;-33
2024/02/28 02:07:58;;;;;;;20.97;13.73;;;7.90;99.90;;;;;;4920020;29;20472;-34
2024/02/28 02:10:25;;;;;;;23.33;13.10;;;7.90;99.90;;;;;;4921285;29;20926;-32
2024/02/28 02:12:51;;;;;;;21.10;13.20;;;7.90;99.90;;;;;;4923047;29;20428;-35
2024/02/28 02:15:18;;;;;;;21.93;13.70;;;7.90;99.90;;;;;;4904792;29;20518;-34
2024/02/28 02:17:44;;;;;;;18.53;13.47;;;7.90;99.90;;;;;;4888078;29;21240;-31
2024/02/28 02:20:14;;;;;;;20.60;13.57;;;7.90;99.90;;;;;;4921466;29;20455;-37
2024/02/28 02:22:40;;;;;;;19.40;13.97;;;7.90;99.90;;;;;;4919248;29;20528;-35
2024/02/28 02:25:07;;;;;;;20.77;13.40;;;7.90;99.90;;;;;;4921512;29;20482;-33
2024/02/28 02:27:32;;;;;;;18.97;13.07;;;7.90;99.90;;;;;;4920385;29;20475;-33
2024/02/28 02:30:01;;;;;;;18.17;12.57;;;7.90;99.90;;;;;;4904358;29;20444;-32
2024/02/28 02:32:28;;;;;;;21.77;13.50;;;7.80;99.90;;;;;;4887099;29;20448;-35
2024/02/28 02:34:57;;;;;;;20.47;13.93;;;7.80;99.90;;;;;;4903690;29;20459;-33
2024/02/28 02:37:23;;;;;;;19.53;12.47;;;7.80;99.90;;;;;;4921860;29;20540;-32
2024/02/28 02:39:58;;;;;;;19.73;13.47;;;7.80;99.90;;;;;;4920651;29;20432;-34
2024/02/28 02:42:26;;;;;;;19.03;13.63;;;7.90;99.90;;;;;;4905634;29;21022;-30
2024/02/28 02:44:57;;;;;;;18.63;13.00;;;7.90;99.90;;;;;;4919264;29;20456;-33
2024/02/28 02:47:23;;;;;;;16.77;13.37;;;7.90;99.90;;;;;;4920123;29;20475;-34
2024/02/28 02:49:50;;;;;;;16.73;12.00;;;7.90;99.90;;;;;;4921354;29;20440;-36
2024/02/28 02:52:16;;;;;;;18.30;13.47;;;7.70;99.90;;;;;;4904474;29;20208;-30
2024/02/28 02:54:42;;;;;;;22.10;13.90;;;7.80;99.90;;;;;;4920175;29;20455;-31
2024/02/28 02:57:10;;;;;;;19.13;13.60;;;7.80;99.90;;;;;;4905074;29;20528;-35
2024/02/28 02:59:36;;;;;;;20.80;13.47;;;7.80;99.90;;;;;;4921791;29;20428;-31
2024/02/28 03:02:03;;;;;;;21.60;14.73;;;7.80;99.90;;;;;;4904485;29;20430;-35
2024/02/28 03:04:31;;;;;;;18.60;12.90;;;7.80;99.90;;;;;;4907180;29;20535;-35
2024/02/28 03:07:00;;;;;;;19.47;13.70;;;7.80;99.90;;;;;;4902647;29;20424;-31
2024/02/28 03:09:28;;;;;;;17.60;13.07;;;7.80;99.90;;;;;;4921791;29;20504;-35
2024/02/28 03:11:54;;;;;;;20.70;13.93;;;7.70;99.90;;;;;;4918503;29;20547;-33
2024/02/28 03:14:25;;;;;;;20.20;13.57;;;7.80;99.90;;;;;;4920708;29;21106;-35
2024/02/28 03:16:51;;;;;;;22.00;13.97;;;7.70;99.90;;;;;;4919716;29;20187;-35
2024/02/28 03:19:19;;;;;;;22.00;14.97;;;7.70;99.90;;;;;;4922101;29;20432;-34
2024/02/28 03:21:48;;;;;;;19.30;12.97;;;7.70;99.90;;;;;;4920409;29;20500;-32
2024/02/28 03:24:14;;;;;;;19.90;13.67;;;7.80;99.90;;;;;;4920396;29;21012;-34
2024/02/28 03:26:40;;;;;;;20.93;14.97;;;7.80;99.90;;;;;;4920032;29;20658;-33
2024/02/28 03:29:06;;;;;;;24.10;14.80;;;7.70;99.90;;;;;;4921353;29;20472;-33
2024/02/28 03:31:32;;;;;;;19.77;14.17;;;7.80;99.90;;;;;;4917086;29;21070;-34
2024/02/28 03:33:57;;;;;;;18.90;13.17;;;7.70;99.90;;;;;;4902168;29;20455;-32
2024/02/28 03:36:28;;;;;;;20.23;13.10;;;7.70;99.90;;;;;;4921388;29;20436;-31
2024/02/28 03:38:58;;;;;;;22.53;13.30;;;7.70;99.90;;;;;;4888303;29;20468;-34
2024/02/28 03:41:27;;;;;;;21.83;14.60;;;7.70;99.90;;;;;;4920114;29;20539;-35
2024/02/28 03:43:57;;;;;;;20.60;13.87;;;7.70;99.90;;;;;;4886689;29;20559;-35
2024/02/28 03:46:23;;;;;;;22.77;14.10;;;7.70;99.90;;;;;;4903519;29;20435;-35
2024/02/28 03:48:51;;;;;;;25.50;14.43;;;7.70;99.90;;;;;;4903916;29;21003;-34
2024/02/28 03:51:17;;;;;;;22.80;15.30;;;7.70;99.90;;;;;;4919788;29;20455;-31
2024/02/28 03:53:43;;;;;;;29.77;16.30;;;7.70;99.90;;;;;;4922500;29;20987;-32
2024/02/28 03:56:11;;;;;;;25.07;15.17;;;7.70;99.90;;;;;;4923293;29;20475;-30
2024/02/28 03:58:39;;;;;;;22.90;15.20;;;7.70;99.90;;;;;;4926378;29;20526;-34
2024/02/28 04:01:08;;;;;;;24.10;16.27;;;7.70;99.90;;;;;;4911852;29;20436;-31
2024/02/28 04:03:36;;;;;;;33.27;18.17;;;7.70;99.90;;;;;;4953177;23;20499;-80
2024/02/28 04:06:04;;;;;;;31.63;18.70;;;8.20;99.90;;;;;;4910396;28;20767;-80
2024/02/28 04:08:30;;;;;;;32.70;18.40;;;7.70;99.90;;;;;;4940815;29;20489;-81
2024/02/28 04:11:01;;;;;;;31.80;19.50;;;7.70;99.90;;;;;;4920003;28;20495;-80
2024/02/28 04:13:29;;;;;;;32.20;20.50;;;7.60;99.90;;;;;;4947722;28;20446;-80
2024/02/28 04:15:58;;;;;;;30.30;19.40;;;7.60;99.90;;;;;;4928816;28;20443;-80
2024/02/28 04:18:24;;;;;;;31.93;18.30;;;7.60;99.90;;;;;;4960443;28;20451;-80
2024/02/28 04:20:50;;;;;;;29.70;19.00;;;7.70;99.90;;;;;;4939079;28;20435;-80
2024/02/28 04:23:18;;;;;;;33.63;19.40;;;7.60;99.90;;;;;;4928748;28;20439;-80
2024/02/28 04:25:44;;;;;;;31.63;19.07;;;7.60;99.90;;;;;;4926688;29;20446;-80
2024/02/28 04:28:17;;;;;;;29.23;18.20;;;7.60;99.90;;;;;;4917201;28;20834;-81
2024/02/28 04:30:54;;;;;;;34.80;20.03;;;7.60;99.90;;;;;;4950279;28;20525;-80
2024/02/28 04:33:20;;;;;;;34.40;20.13;;;8.40;99.90;;;;;;4947476;29;20431;-80
2024/02/28 04:35:46;;;;;;;33.93;21.00;;;7.60;99.90;;;;;;4938503;28;20443;-82
2024/02/28 04:38:12;;;;;;;32.10;19.73;;;7.50;99.90;;;;;;4919740;28;20443;-81
2024/02/28 04:40:40;;;;;;;34.73;20.77;;;7.60;99.90;;;;;;4937171;28;20453;-81
2024/02/28 04:43:06;;;;;;;33.10;19.27;;;7.60;99.90;;;;;;4935164;28;20443;-80
2024/02/28 04:45:35;;;;;;;35.43;20.87;;;7.60;99.90;;;;;;4918353;29;21322;-81
2024/02/28 04:48:03;;;;;;;35.33;19.70;;;7.60;99.90;;;;;;4938249;29;20494;-81
2024/02/28 04:50:32;;;;;;;33.17;20.07;;;7.60;99.90;;;;;;4942449;28;21020;-82
2024/02/28 04:53:00;;;;;;;34.07;20.77;;;7.70;99.90;;;;;;4913566;28;20461;-81
2024/02/28 04:55:26;;;;;;;42.90;22.07;;;7.60;99.90;;;;;;4923344;29;20439;-80
2024/02/28 04:57:52;;;;;;;39.87;22.73;;;8.00;99.90;;;;;;4910522;29;20506;-80
2024/02/28 05:00:18;;;;;;;38.47;23.27;;;7.60;99.90;;;;;;4940392;28;20179;-79
2024/02/28 05:02:48;;;;;;;43.93;24.07;;;7.60;99.90;;;;;;4939302;29;20463;-80
2024/02/28 05:05:14;;;;;;;37.83;21.40;;;7.60;99.90;;;;;;4937369;29;21169;-80
2024/02/28 05:07:40;;;;;;;41.70;23.03;;;7.60;99.90;;;;;;4948642;28;20508;-80
2024/02/28 05:10:10;;;;;;;42.20;22.50;;;8.30;99.90;;;;;;4906546;28;20460;-81
2024/02/28 05:12:36;;;;;;;45.47;23.10;;;7.60;99.90;;;;;;4922956;29;20466;-81
2024/02/28 05:15:02;;;;;;;43.67;23.90;;;7.60;99.90;;;;;;4923921;29;20439;-82
2024/02/28 05:17:31;;;;;;;39.30;23.30;;;7.60;99.90;;;;;;4941762;28;20509;-79
2024/02/28 05:19:57;;;;;;;40.63;23.30;;;7.50;99.90;;;;;;4933439;28;20458;-80
2024/02/28 05:22:25;;;;;;;46.20;26.17;;;7.70;99.90;;;;;;4948615;28;20438;-80
2024/02/28 05:24:52;;;;;;;44.17;26.00;;;7.70;99.90;;;;;;4922707;29;20435;-80
2024/02/28 05:27:18;;;;;;;39.70;23.60;;;8.10;99.90;;;;;;4926074;28;20463;-81
2024/02/28 05:29:46;;;;;;;47.00;25.90;;;7.60;99.90;;;;;;4944183;28;21316;-81
2024/02/28 05:32:14;;;;;;;43.13;23.30;;;7.80;99.90;;;;;;4926438;28;20475;-81
2024/02/28 05:34:41;;;;;;;46.33;24.10;;;7.60;99.90;;;;;;4955414;28;20446;-81
2024/02/28 05:37:07;;;;;;;41.87;25.20;;;8.20;99.90;;;;;;4946023;28;20986;-81
2024/02/28 05:39:33;;;;;;;45.70;24.87;;;7.70;99.90;;;;;;4926858;28;20439;-79
2024/02/28 05:42:01;;;;;;;43.50;25.17;;;7.80;99.90;;;;;;4943627;29;20985;-81
2024/02/28 05:44:27;;;;;;;42.90;23.63;;;8.10;99.90;;;;;;4921147;29;20446;-81
2024/02/28 05:46:55;;;;;;;43.10;24.90;;;7.60;99.90;;;;;;4927551;29;20447;-81
2024/02/28 05:49:22;;;;;;;45.57;24.67;;;7.50;99.90;;;;;;4906409;28;20485;-81
2024/02/28 05:51:48;;;;;;;41.17;22.90;;;7.70;99.90;;;;;;4955515;28;20423;-81
2024/02/28 05:54:16;;;;;;;41.67;22.50;;;7.50;99.90;;;;;;4938102;29;20458;-81
2024/02/28 05:56:42;;;;;;;39.63;24.70;;;7.60;99.90;;;;;;4939656;29;20448;-81
2024/02/28 05:59:08;;;;;;;43.67;24.27;;;7.50;99.90;;;;;;4915744;28;20438;-82
2024/02/28 06:01:37;;;;;;;43.17;23.17;;;7.60;99.90;;;;;;4926927;29;20485;-81
2024/02/28 06:04:03;;;;;;;38.20;21.50;;;7.50;99.90;;;;;;4913514;28;20478;-82
2024/02/28 06:06:29;;;;;;;44.10;23.80;;;7.60;99.90;;;;;;4938957;29;20439;-82
2024/02/28 06:08:56;;;;;;;36.80;22.03;;;7.70;99.90;;;;;;4922390;29;20463;-81
2024/02/28 06:11:22;;;;;;;36.50;21.97;;;8.00;99.90;;;;;;4916380;29;21132;-82
2024/02/28 06:13:52;;;;;;;46.80;23.70;;;7.50;99.90;;;;;;4928273;28;20435;-82
2024/02/28 06:16:18;;;;;;;38.43;21.43;;;7.90;99.90;;;;;;4916955;29;20454;-82
2024/02/28 06:18:45;;;;;;;42.23;23.43;;;7.50;99.90;;;;;;4906923;28;20459;-81
2024/02/28 06:21:14;;;;;;;39.70;22.17;;;7.80;99.90;;;;;;4942806;28;20443;-82
2024/02/28 06:23:40;;;;;;;44.60;24.07;;;7.60;99.90;;;;;;4932341;28;20517;-82
2024/02/28 06:26:16;;;;;;;39.27;23.07;;;7.60;99.90;;;;;;4927847;28;20538;-82
2024/02/28 06:28:47;;;;;;;40.60;23.87;;;7.80;99.90;;;;;;4925455;28;20690;-83
2024/02/28 06:31:17;;;;;;;42.67;23.40;;;7.50;99.90;;;;;;4913783;28;20451;-81
2024/02/28 06:33:44;;;;;;;39.70;22.20;;;7.50;99.90;;;;;;4927404;28;20446;-81
2024/02/28 06:36:10;;;;;;;43.10;22.07;;;7.50;99.90;;;;;;4923434;29;20474;-81
2024/02/28 06:38:36;;;;;;;43.90;23.60;;;7.50;99.90;;;;;;4927238;28;20490;-81
2024/02/28 06:41:05;;;;;;;43.50;22.20;;;8.10;99.90;;;;;;4927533;29;20435;-81
2024/02/28 06:43:34;;;;;;;38.70;23.27;;;7.50;99.90;;;;;;4949300;28;20465;-82
2024/02/28 06:46:00;;;;;;;39.50;21.70;;;8.40;99.90;;;;;;4945685;29;20940;-82
2024/02/28 06:48:28;;;;;;;39.03;22.10;;;7.60;99.90;;;;;;4925863;29;20569;-82
2024/02/28 06:50:54;;;;;;;38.83;22.63;;;7.70;99.90;;;;;;4921926;28;20451;-83
2024/02/28 06:53:20;;;;;;;42.93;22.00;;;7.50;99.90;;;;;;4936399;29;20904;-83
2024/02/28 06:55:48;;;;;;;42.10;24.00;;;8.10;99.90;;;;;;4917478;29;20432;-82
2024/02/28 06:58:15;;;;;;;39.60;22.13;;;8.00;99.90;;;;;;4937106;28;20450;-83
2024/02/28 07:00:44;;;;;;;38.20;22.00;;;7.50;99.90;;;;;;4905490;28;20283;-82
2024/02/28 07:03:10;;;;;;;39.07;21.67;;;7.70;99.90;;;;;;4931446;29;20764;-84
2024/02/28 07:05:41;;;;;;;41.43;22.57;;;7.50;99.90;;;;;;4931831;28;20501;-83
2024/02/28 07:08:07;;;;;;;36.73;20.73;;;8.10;99.90;;;;;;4942545;29;20521;-83
2024/02/28 07:10:36;;;;;;;41.87;22.60;;;7.60;99.90;;;;;;4917249;28;20458;-82
2024/02/28 07:13:05;;;;;;;39.50;22.63;;;8.30;99.90;;;;;;4921642;28;20449;-81
2024/02/28 07:15:31;;;;;;;42.23;22.53;;;9.00;99.90;;;;;;4906001;28;20420;-81
2024/02/28 07:17:57;;;;;;;39.30;23.33;;;8.10;99.90;;;;;;4937094;29;20547;-83
2024/02/28 07:20:26;;;;;;;40.50;22.23;;;7.60;99.90;;;;;;4908107;28;21553;-83
2024/02/28 07:22:52;;;;;;;44.53;23.70;;;7.40;99.90;;;;;;4921579;29;20596;-83
2024/02/28 07:25:18;;;;;;;42.77;22.73;;;8.40;99.90;;;;;;4908753;29;20523;-83
2024/02/28 07:27:44;;;;;;;44.93;23.10;;;8.20;99.90;;;;;;4910375;28;20562;-82
2024/02/28 07:30:13;;;;;;;43.43;24.00;;;7.50;99.90;;;;;;4930994;28;20431;-81
2024/02/28 07:32:39;;;;;;;45.77;24.83;;;7.50;99.90;;;;;;4925397;28;20475;-81
2024/02/28 07:35:05;;;;;;;44.93;23.47;;;7.50;99.90;;;;;;4927832;28;20497;-80
2024/02/28 07:37:31;;;;;;;41.03;23.00;;;7.50;99.90;;;;;;4908441;28;20498;-81
2024/02/28 07:39:57;;;;;;;46.93;23.17;;;8.10;99.90;;;;;;4950957;28;20438;-80
2024/02/28 07:42:28;;;;;;;45.77;23.17;;;7.50;99.90;;;;;;4929113;29;20452;-82
2024/02/28 07:44:56;;;;;;;45.20;23.27;;;7.50;99.90;;;;;;4956595;28;20538;-82
2024/02/28 07:47:23;;;;;;;39.93;23.70;;;7.50;99.90;;;;;;4923052;29;20514;-82
2024/02/28 07:49:50;;;;;;;42.97;24.40;;;7.50;99.90;;;;;;4923696;29;20481;-83
2024/02/28 07:52:16;;;;;;;40.77;22.10;;;7.50;99.90;;;;;;4949254;28;20435;-82
2024/02/28 07:54:45;;;;;;;44.07;25.27;;;7.50;99.90;;;;;;4923104;28;20461;-81
2024/02/28 07:57:15;;;;;;;37.73;22.83;;;7.90;99.90;;;;;;4930240;28;20512;-82
2024/02/28 07:59:43;;;;;;;51.50;25.20;;;7.50;99.90;;;;;;4935755;28;20927;-82
2024/02/28 08:02:13;;;;;;;45.70;24.47;;;7.80;99.90;;;;;;4953016;28;20430;-81
2024/02/28 08:04:50;;;;;;;43.57;22.57;;;7.50;99.90;;;;;;4912680;28;20471;-81
2024/02/28 08:07:23;;;;;;;43.40;23.70;;;7.50;99.90;;;;;;4910891;29;20435;-83
2024/02/28 08:09:49;;;;;;;42.17;21.20;;;7.50;99.90;;;;;;4944633;28;20459;-82
2024/02/28 08:12:17;;;;;;;42.10;23.70;;;7.40;99.90;;;;;;4932699;28;20430;-81
2024/02/28 08:14:43;;;;;;;41.70;21.43;;;8.00;99.90;;;;;;4950462;28;20433;-80
2024/02/28 08:17:13;;;;;;;45.67;21.90;;;7.50;99.90;;;;;;4931721;29;20443;-81
2024/02/28 08:19:44;;;;;;;44.87;23.83;;;7.50;99.90;;;;;;4939309;28;20466;-82
2024/02/28 08:22:15;;;;;;;51.13;23.80;;;7.40;99.90;;;;;;4927851;29;20448;-82
2024/02/28 08:24:43;;;;;;;51.23;23.73;;;7.70;99.90;;;;;;4913776;28;20568;-81
2024/02/28 08:27:09;;;;;;;53.80;26.33;;;8.10;99.90;;;;;;4908387;28;20436;-82
2024/02/28 08:29:43;;;;;;;45.30;23.33;;;7.60;99.90;;;;;;4934316;28;20474;-82
2024/02/28 08:32:12;;;;;;;41.37;22.07;;;7.50;99.90;;;;;;4913788;28;20456;-81
2024/02/28 08:34:38;;;;;;;46.13;22.57;;;7.50;99.90;;;;;;4918469;29;20499;-81
2024/02/28 08:37:04;;;;;;;38.90;21.20;;;7.50;99.90;;;;;;4947095;29;20939;-81
2024/02/28 08:39:30;;;;;;;47.50;24.37;;;8.10;99.90;;;;;;4916115;29;20542;-80
2024/02/28 08:41:58;;;;;;;41.77;23.43;;;7.50;99.90;;;;;;4953373;28;20434;-82
2024/02/28 08:44:24;;;;;;;45.83;24.10;;;7.50;99.90;;;;;;4948614;29;20438;-82
2024/02/28 08:46:50;;;;;;;43.03;22.67;;;7.50;99.90;;;;;;4916405;29;20522;-81
2024/02/28 08:49:17;;;;;;;41.70;21.57;;;7.60;99.90;;;;;;4919089;28;20536;-81
2024/02/28 08:51:43;;;;;;;53.43;22.30;;;7.50;99.90;;;;;;4927873;29;20451;-81
2024/02/28 08:54:09;;;;;;;45.13;22.93;;;7.50;99.90;;;;;;4924909;29;20558;-82
2024/02/28 08:56:35;;;;;;;42.00;21.37;;;7.50;99.90;;;;;;4922763;28;20483;-81
2024/02/28 08:59:03;;;;;;;45.53;23.67;;;7.50;99.90;;;;;;4937987;28;20497;-81
2024/02/28 09:01:29;;;;;;;45.60;22.80;;;7.60;99.90;;;;;;4922764;28;20946;-81
2024/02/28 09:03:55;;;;;;;45.60;22.70;;;7.60;99.90;;;;;;4911728;28;20444;-81
2024/02/28 09:06:23;;;;;;;43.80;22.83;;;7.60;99.90;;;;;;4908546;29;20745;-81
2024/02/28 09:08:49;;;;;;;45.03;22.80;;;7.60;99.90;;;;;;4944253;28;20553;-81
2024/02/28 09:11:20;;;;;;;43.50;23.37;;;7.50;99.90;;;;;;4921184;28;20446;-80
2024/02/28 09:13:55;;;;;;;43.40;23.00;;;7.60;99.90;;;;;;4942377;28;20455;-80
2024/02/28 09:16:24;;;;;;;44.40;23.47;;;7.50;99.90;;;;;;4924405;28;20468;-80
2024/02/28 09:18:52;;;;;;;44.27;21.90;;;7.60;99.90;;;;;;4922187;29;20447;-81
2024/02/28 09:21:18;;;;;;;39.63;21.17;;;7.50;99.90;;;;;;4922863;29;20453;-81
2024/02/28 09:23:44;;;;;;;48.50;22.40;;;7.70;99.90;;;;;;4923990;28;20595;-81
2024/02/28 09:26:13;;;;;;;44.30;22.57;;;7.60;99.90;;;;;;4931416;29;20497;-81
2024/02/28 09:28:39;;;;;;;45.90;22.90;;;7.80;99.90;;;;;;4932627;28;20540;-81
2024/02/28 09:31:04;;;;;;;42.57;24.03;;;7.60;99.90;;;;;;4916347;28;20966;-81
2024/02/28 09:33:33;;;;;;;44.37;23.73;;;7.90;99.90;;;;;;4929216;29;20502;-81
2024/02/28 09:36:01;;;;;;;43.87;22.47;;;7.50;99.90;;;;;;4940906;28;20443;-81
2024/02/28 09:38:29;;;;;;;38.03;20.20;;;7.60;99.90;;;;;;4929362;29;20457;-80
2024/02/28 09:40:55;;;;;;;43.70;21.73;;;7.70;99.90;;;;;;4933039;28;20433;-81
2024/02/28 09:43:28;;;;;;;43.47;22.53;;;7.60;99.90;;;;;;4942244;28;20486;-80
2024/02/28 09:46:03;;;;;;;49.33;23.57;;;7.60;99.90;;;;;;4909034;28;20550;-81
2024/02/28 09:48:34;;;;;;;43.40;23.17;;;7.60;99.90;;;;;;4915429;28;21100;-80
2024/02/28 09:51:01;;;;;;;41.83;21.30;;;7.60;99.90;;;;;;4910092;29;20763;-81
2024/02/28 09:53:27;;;;;;;45.57;22.70;;;7.90;99.90;;;;;;4910312;28;20435;-81
2024/02/28 09:55:53;;;;;;;39.03;20.27;;;7.70;99.90;;;;;;4935221;28;20453;-81
2024/02/28 09:58:26;;;;;;;45.77;23.17;;;7.60;99.90;;;;;;4929843;28;20435;-81
2024/02/28 10:00:59;;;;;;;41.10;23.30;;;7.60;99.90;;;;;;4927658;28;20514;-81
2024/02/28 10:03:26;;;;;;;47.73;23.33;;;7.60;99.90;;;;;;4923089;28;20504;-82
2024/02/28 10:05:52;;;;;;;47.83;23.03;;;7.60;99.90;;;;;;4929558;28;20503;-80
2024/02/28 10:08:20;;;;;;;44.90;23.60;;;7.90;99.90;;;;;;4947915;29;20800;-81
2024/02/28 10:10:54;;;;;;;46.53;23.47;;;7.70;99.90;;;;;;4911889;28;20435;-82
2024/02/28 10:13:22;;;;;;;47.67;23.87;;;7.60;99.90;;;;;;4934150;29;20438;-81
2024/02/28 10:15:49;;;;;;;42.63;21.53;;;7.80;99.90;;;;;;4917366;28;20458;-81
2024/02/28 10:18:16;;;;;;;46.40;22.10;;;7.60;99.90;;;;;;4907567;28;20454;-81
2024/02/28 10:20:42;;;;;;;40.17;21.20;;;8.00;99.90;;;;;;4906506;29;20930;-81
2024/02/28 10:23:09;;;;;;;42.47;24.00;;;7.90;99.90;;;;;;4922405;29;20458;-82
2024/02/28 10:25:45;;;;;;;47.37;24.33;;;7.50;99.90;;;;;;4938140;28;20509;-80
2024/02/28 10:28:14;;;;;;;45.73;23.17;;;8.10;99.90;;;;;;4920466;28;20493;-81
2024/02/28 10:30:44;;;;;;;41.33;22.60;;;7.70;99.90;;;;;;4946004;29;20436;-82
2024/02/28 10:33:18;;;;;;;38.37;20.60;;;7.70;99.90;;;;;;4932570;28;20442;-81
2024/02/28 10:35:44;;;;;;;49.53;24.40;;;7.70;99.90;;;;;;4911272;28;20463;-81
2024/02/28 10:38:14;;;;;;;44.10;21.67;;;8.00;99.90;;;;;;4943114;28;20439;-82
2024/02/28 10:40:43;;;;;;;40.37;21.80;;;7.70;99.90;;;;;;4940508;28;20599;-82
2024/02/28 10:43:10;;;;;;;47.50;24.17;;;7.70;99.90;;;;;;4926812;28;20431;-81
2024/02/28 10:45:52;;;;;;;39.90;21.03;;;7.70;99.90;;;;;;4923387;29;20440;-81
2024/02/28 10:48:19;;;;;;;41.23;20.20;;;7.70;99.90;;;;;;4920665;29;20574;-82
2024/02/28 10:50:47;;;;;;;42.93;21.73;;;8.40;99.90;;;;;;4909295;28;20541;-81
2024/02/28 10:53:21;;;;;;;42.10;21.47;;;7.90;99.90;;;;;;4937207;29;20869;-81
2024/02/28 10:55:49;;;;;;;41.03;22.33;;;7.80;99.90;;;;;;4906421;29;20501;-82
2024/02/28 10:58:24;;;;;;;38.40;20.30;;;7.80;99.90;;;;;;4920245;29;20467;-80
2024/02/28 11:00:51;;;;;;;40.73;20.63;;;7.80;99.90;;;;;;4923724;29;20449;-82
2024/02/28 11:03:20;;;;;;;41.80;23.37;;;7.80;99.90;;;;;;4940430;29;20546;-83
2024/02/28 11:05:46;;;;;;;43.40;22.03;;;7.80;99.90;;;;;;4915994;28;20466;-82
2024/02/28 11:08:37;;;;;;;37.50;20.20;;;7.80;99.90;;;;;;4924342;28;20572;-81
2024/02/28 11:11:04;;;;;;;40.67;20.57;;;7.80;99.90;;;;;;4941746;28;20415;-81
2024/02/28 11:14:00;;;;;;;33.43;18.93;;;7.90;99.90;;;;;;4921361;29;20427;-82
2024/02/28 11:16:28;;;;;;;37.97;20.50;;;7.80;99.90;;;;;;4933288;28;20443;-82
2024/02/28 11:18:54;;;;;;;41.73;22.03;;;7.80;99.90;;;;;;4927695;28;20890;-81
2024/02/28 11:21:27;;;;;;;35.33;20.00;;;7.90;99.90;;;;;;4905465;29;21079;-82
2024/02/28 11:24:00;;;;;;;41.00;21.50;;;7.90;99.90;;;;;;4919734;29;20436;-82
2024/02/28 11:26:27;;;;;;;36.30;21.90;;;7.90;99.90;;;;;;4939074;28;20536;-82
2024/02/28 11:28:57;;;;;;;40.50;22.20;;;7.90;99.90;;;;;;4920317;28;20649;-82
2024/02/28 11:31:23;;;;;;;37.90;20.63;;;7.90;99.90;;;;;;4925154;29;20502;-83
2024/02/28 11:34:15;;;;;;;34.47;19.90;;;7.90;99.90;;;;;;4916855;29;20447;-82
2024/02/28 11:37:04;;;;;;;37.10;19.17;;;7.80;99.90;;;;;;4918925;29;20534;-81
2024/02/28 11:39:32;;;;;;;36.30;19.57;;;8.00;99.90;;;;;;4924343;29;20463;-83
2024/02/28 11:42:13;;;;;;;35.03;19.03;;;8.00;99.90;;;;;;4924582;29;20451;-82
2024/02/28 11:44:41;;;;;;;38.40;19.87;;;8.00;99.90;;;;;;4921612;29;20437;-82
2024/02/28 11:47:11;;;;;;;35.57;19.77;;;8.00;99.90;;;;;;4916645;28;20478;-83
2024/02/28 11:49:40;;;;;;;32.80;18.60;;;8.20;99.90;;;;;;4904094;28;20489;-82
2024/02/28 11:52:06;;;;;;;33.40;19.60;;;8.90;99.90;;;;;;4904192;28;20981;-83
2024/02/28 11:54:34;;;;;;;41.67;20.97;;;8.00;99.90;;;;;;4924460;28;20454;-83
2024/02/28 11:57:06;;;;;;;34.73;17.63;;;8.00;99.90;;;;;;4926922;28;21231;-82
2024/02/28 11:59:32;;;;;;;32.00;19.37;;;8.10;99.90;;;;;;4924364;28;20459;-83
2024/02/28 12:01:58;;;;;;;34.63;19.37;;;8.10;99.90;;;;;;4910516;28;20557;-82
2024/02/28 12:04:27;;;;;;;36.27;19.70;;;8.10;99.90;;;;;;4943558;29;21231;-83
2024/02/28 12:06:57;;;;;;;35.10;19.50;;;8.30;99.90;;;;;;4903896;29;20440;-83
2024/02/28 12:09:22;;;;;;;32.70;18.10;;;8.10;99.90;;;;;;4924598;28;20470;-81
2024/02/28 12:11:49;;;;;;;32.87;20.10;;;8.10;99.90;;;;;;4938794;28;20453;-81
2024/02/28 12:14:17;;;;;;;33.67;19.67;;;8.30;99.90;;;;;;4942271;28;20216;-82
2024/02/28 12:16:44;;;;;;;32.33;17.63;;;8.20;99.90;;;;;;4943527;28;20439;-82
2024/02/28 12:19:15;;;;;;;35.70;19.77;;;8.20;99.90;;;;;;4939822;29;20472;-83
2024/02/28 12:21:41;;;;;;;34.17;19.67;;;8.20;99.90;;;;;;4936697;28;20526;-82
2024/02/28 12:24:09;;;;;;;34.30;18.80;;;8.20;99.90;;;;;;4963560;28;20610;-84
2024/02/28 12:26:35;;;;;;;29.43;17.80;;;8.20;99.90;;;;;;4941169;29;20964;-82
2024/02/28 12:29:01;;;;;;;31.60;18.93;;;8.20;99.90;;;;;;4957305;28;20485;-84
2024/02/28 12:31:29;;;;;;;31.83;18.43;;;8.20;99.90;;;;;;4938745;29;21222;-83
2024/02/28 12:33:58;;;;;;;30.70;18.37;;;8.20;99.90;;;;;;4937447;28;20454;-85
2024/02/28 12:36:26;;;;;;;32.87;17.60;;;8.30;99.90;;;;;;4925966;28;20444;-85
2024/02/28 12:38:55;;;;;;;29.63;18.53;;;8.60;99.90;;;;;;4922606;28;20514;-82
2024/02/28 12:41:24;;;;;;;31.00;16.97;;;8.30;99.90;;;;;;4921756;28;20854;-82